createdAt,value
2022-11-05T00:00:13.113Z,9.05
2022-11-05T00:04:33.338Z,9.55
2022-11-05T00:08:53.841Z,8.85
2022-11-05T00:13:16.742Z,9.57
2022-11-05T00:17:18.245Z,9.02
2022-11-05T00:21:38.407Z,8.80
2022-11-05T00:25:40.145Z,10.43
2022-11-05T00:29:41.600Z,9.07
2022-11-05T00:33:43.508Z,9.27
2022-11-05T00:37:49.784Z,8.68
2022-11-05T00:42:10.455Z,10.23
2022-11-05T00:46:12.293Z,9.23
2022-11-05T00:50:14.032Z,9.88
2022-11-05T00:54:15.536Z,11.23
2022-11-05T00:58:22.016Z,9.93
2022-11-05T01:02:24.680Z,10.27
2022-11-05T01:06:26.324Z,12.05
2022-11-05T01:10:28.551Z,12.57
2022-11-05T01:14:30.404Z,9.43
2022-11-05T01:18:31.974Z,11.57
2022-11-05T01:22:33.552Z,11.73
2022-11-05T01:26:35.115Z,11.30
2022-11-05T01:30:37.184Z,10.43
2022-11-05T01:34:38.692Z,11.07
2022-11-05T01:38:40.310Z,10.48
2022-11-05T01:42:41.998Z,11.55
2022-11-05T01:46:46.125Z,10.88
2022-11-05T01:50:59.975Z,11.82
2022-11-05T01:55:03.444Z,10.35
2022-11-05T01:59:11.796Z,11.70
2022-11-05T02:03:16.504Z,9.43
2022-11-05T02:07:18.827Z,8.65
2022-11-05T02:11:20.844Z,7.05
2022-11-05T02:15:58.450Z,7.43
2022-11-05T02:19:59.947Z,7.30
2022-11-05T02:24:23.743Z,7.20
2022-11-05T02:28:34.303Z,7.72
2022-11-05T02:32:47.073Z,7.63
2022-11-05T02:37:13.173Z,9.10
2022-11-05T02:41:21.943Z,8.68
2022-11-05T02:45:23.388Z,9.38
2022-11-05T02:49:35.734Z,9.10
2022-11-05T02:57:46.528Z,9.13
2022-11-05T03:01:49.001Z,8.90
2022-11-05T03:05:53.654Z,8.63
2022-11-05T03:10:27.393Z,7.97
2022-11-05T03:14:51.172Z,8.60
2022-11-05T03:19:19.268Z,10.23
2022-11-05T03:23:32.129Z,8.77
2022-11-05T03:27:38.009Z,8.85
2022-11-05T03:31:41.532Z,8.85
2022-11-05T03:35:50.149Z,10.15
2022-11-05T03:39:56.338Z,8.93
2022-11-05T03:48:04.769Z,7.75
2022-11-05T03:52:16.538Z,10.02
2022-11-05T03:56:26.212Z,9.38
2022-11-05T04:00:27.794Z,10.35
2022-11-05T04:04:29.491Z,10.18
2022-11-05T04:08:49.559Z,11.40
2022-11-05T04:13:09.910Z,10.30
2022-11-05T04:17:11.815Z,12.05
2022-11-05T04:21:31.886Z,13.40
2022-11-05T04:25:33.724Z,12.90
2022-11-05T04:29:53.988Z,12.27
2022-11-05T04:33:55.435Z,12.75
2022-11-05T04:37:57.053Z,12.23
2022-11-05T04:41:58.633Z,11.70
2022-11-05T04:46:00.307Z,12.00
2022-11-05T04:50:01.914Z,11.95
2022-11-05T04:54:04.083Z,11.40
2022-11-05T04:58:06.132Z,10.82
2022-11-05T05:02:07.994Z,12.57
2022-11-05T05:06:10.365Z,12.57
2022-11-05T05:10:12.426Z,11.23
2022-11-05T05:14:13.974Z,12.05
2022-11-05T05:18:15.631Z,11.55
2022-11-05T05:22:17.245Z,10.57
2022-11-05T05:26:18.864Z,12.63
2022-11-05T05:30:20.366Z,11.75
2022-11-05T05:34:22.057Z,12.13
2022-11-05T05:38:23.847Z,12.30
2022-11-05T05:42:25.327Z,10.93
2022-11-05T05:46:26.812Z,12.30
2022-11-05T05:50:28.330Z,12.45
2022-11-05T05:54:33.437Z,11.85
2022-11-05T05:58:39.086Z,10.60
2022-11-05T06:02:40.740Z,11.95
2022-11-05T06:06:42.635Z,11.18
2022-11-05T06:10:50.656Z,10.80
2022-11-05T06:14:52.484Z,11.60
2022-11-05T06:18:53.980Z,10.55
2022-11-05T06:22:58.623Z,10.43
2022-11-05T06:27:00.138Z,10.73
2022-11-05T06:31:02.747Z,10.32
2022-11-05T06:35:04.555Z,11.00
2022-11-05T06:39:11.252Z,10.85
2022-11-05T06:43:13.096Z,9.85
2022-11-05T06:47:15.180Z,10.30
2022-11-05T06:51:16.748Z,10.82
2022-11-05T06:55:18.274Z,10.60
2022-11-05T06:59:20.101Z,9.75
2022-11-05T07:03:21.756Z,10.68
2022-11-05T07:07:23.301Z,9.77
2022-11-05T07:11:24.834Z,10.75
2022-11-05T07:15:26.324Z,10.90
2022-11-05T07:19:27.857Z,9.82
2022-11-05T07:23:29.494Z,9.38
2022-11-05T07:27:31.352Z,8.50
2022-11-05T07:31:32.981Z,10.02
2022-11-05T07:35:34.842Z,11.00
2022-11-05T07:39:36.430Z,8.63
2022-11-05T07:43:37.960Z,8.98
2022-11-05T07:47:45.534Z,9.55
2022-11-05T07:51:47.296Z,9.20
2022-11-05T07:55:49.047Z,9.45
2022-11-05T07:59:50.614Z,9.50
2022-11-05T08:03:52.221Z,9.38
2022-11-05T08:07:55.217Z,8.50
2022-11-05T08:12:02.612Z,9.88
2022-11-05T08:16:05.732Z,9.07
2022-11-05T08:20:08.132Z,8.07
2022-11-05T08:24:09.943Z,8.43
2022-11-05T08:28:13.118Z,7.75
2022-11-05T08:32:14.784Z,7.78
2022-11-05T08:36:16.422Z,7.38
2022-11-05T08:40:18.155Z,7.95
2022-11-05T08:44:19.935Z,7.78
2022-11-05T08:48:21.601Z,9.00
2022-11-05T08:52:23.156Z,8.02
2022-11-05T08:56:24.797Z,8.07
2022-11-05T09:00:28.421Z,6.20
2022-11-05T09:04:30.395Z,7.05
2022-11-05T09:08:32.116Z,7.03
2022-11-05T09:12:33.727Z,7.45
2022-11-05T09:16:36.943Z,7.85
2022-11-05T09:20:40.032Z,7.65
2022-11-05T09:24:43.385Z,8.23
2022-11-05T09:28:45.102Z,7.97
2022-11-05T09:32:46.892Z,6.50
2022-11-05T09:36:48.969Z,7.00
2022-11-05T09:41:01.693Z,7.25
2022-11-05T09:45:25.176Z,6.85
2022-11-05T09:49:35.417Z,5.72
2022-11-05T09:53:40.868Z,5.70
2022-11-05T09:57:47.908Z,5.85
2022-11-05T10:01:52.433Z,5.65
2022-11-05T10:06:00.213Z,5.32
2022-11-05T10:10:06.348Z,5.05
2022-11-05T10:14:16.811Z,3.55
2022-11-05T10:18:31.599Z,3.53
2022-11-05T10:22:33.384Z,3.80
2022-11-05T10:26:35.150Z,4.00
2022-11-05T10:30:37.193Z,2.90
2022-11-05T10:34:39.987Z,3.83
2022-11-05T10:38:42.259Z,4.70
2022-11-05T10:43:00.547Z,3.92
2022-11-05T10:47:33.542Z,3.60
2022-11-05T10:51:35.222Z,2.90
2022-11-05T10:55:41.530Z,3.13
2022-11-05T10:59:43.132Z,2.72
2022-11-05T11:03:49.399Z,2.83
2022-11-05T11:08:01.294Z,3.20
2022-11-05T11:12:16.945Z,3.25
2022-11-05T11:16:23.947Z,3.22
2022-11-05T11:20:31.516Z,2.47
2022-11-05T11:24:41.548Z,2.50
2022-11-05T11:28:51.197Z,2.80
2022-11-05T11:32:59.143Z,2.85
2022-11-05T11:37:19.508Z,2.53
2022-11-05T11:41:27.937Z,2.97
2022-11-05T11:45:52.862Z,2.42
2022-11-05T11:49:57.423Z,1.90
2022-11-05T11:54:00.226Z,2.03
2022-11-05T11:58:07.750Z,2.72
2022-11-05T12:02:34.943Z,2.15
2022-11-05T12:06:46.244Z,2.03
2022-11-05T12:11:01.068Z,2.40
2022-11-05T12:15:17.788Z,2.45
2022-11-05T12:20:06.648Z,2.35
2022-11-05T12:24:23.474Z,2.10
2022-11-05T12:29:12.319Z,1.73
2022-11-05T12:33:13.854Z,1.83
2022-11-05T12:37:30.864Z,1.80
2022-11-05T12:42:00.172Z,1.75
2022-11-05T12:46:12.828Z,2.00
2022-11-05T12:50:29.752Z,1.83
2022-11-05T12:54:53.219Z,1.80
2022-11-05T12:59:02.516Z,1.67
2022-11-05T13:03:20.665Z,1.80
2022-11-05T13:07:58.012Z,1.95
2022-11-05T13:12:11.997Z,2.10
2022-11-05T13:16:24.177Z,1.70
2022-11-05T13:20:39.726Z,1.77
2022-11-05T13:24:57.484Z,1.77
2022-11-05T13:29:10.239Z,1.88
2022-11-05T13:33:20.962Z,1.60
2022-11-05T13:37:55.876Z,2.10
2022-11-05T13:42:28.389Z,1.55
2022-11-05T13:46:46.955Z,1.77
2022-11-05T13:50:59.791Z,2.13
2022-11-05T13:55:29.763Z,1.88
2022-11-05T14:03:33.230Z,1.52
2022-11-05T14:07:46.193Z,1.40
2022-11-05T14:11:51.665Z,1.80
2022-11-05T14:20:23.054Z,1.70
2022-11-05T14:24:28.000Z,1.70
2022-11-05T14:28:35.582Z,1.38
2022-11-05T14:32:48.565Z,1.98
2022-11-05T14:37:19.866Z,1.35
2022-11-05T14:41:22.391Z,1.60
2022-11-05T14:45:30.443Z,1.50
2022-11-05T14:49:50.954Z,1.67
2022-11-05T14:54:15.179Z,1.45
2022-11-05T14:58:17.370Z,1.80
2022-11-05T15:02:23.002Z,2.00
2022-11-05T15:10:37.486Z,1.50
2022-11-05T15:14:59.059Z,1.92
2022-11-05T15:19:01.258Z,1.55
2022-11-05T15:23:06.435Z,1.90
2022-11-05T15:27:16.033Z,1.90
2022-11-05T15:31:37.379Z,2.28
2022-11-05T15:35:41.323Z,1.48
2022-11-05T15:39:45.331Z,1.77
2022-11-05T15:43:48.563Z,1.67
2022-11-05T15:47:50.191Z,1.90
2022-11-05T15:51:51.821Z,2.22
2022-11-05T15:55:58.026Z,1.85
2022-11-05T16:00:04.566Z,2.80
2022-11-05T16:04:17.551Z,2.08
2022-11-05T16:08:23.263Z,2.42
2022-11-05T16:12:33.729Z,2.85
2022-11-05T16:16:35.359Z,2.80
2022-11-05T16:20:38.709Z,2.28
2022-11-05T16:24:40.907Z,2.53
2022-11-05T16:28:50.636Z,2.92
2022-11-05T16:32:52.973Z,3.28
2022-11-05T16:36:57.118Z,2.90
2022-11-05T16:41:00.292Z,3.67
2022-11-05T16:45:02.049Z,3.70
2022-11-05T16:49:03.974Z,3.55
2022-11-05T16:53:05.566Z,3.63
2022-11-05T16:57:15.674Z,3.88
2022-11-05T17:01:20.439Z,15.25
2022-11-05T17:05:26.139Z,71.00
2022-11-05T17:09:27.695Z,28.65
2022-11-05T17:13:29.221Z,64.03
2022-11-05T17:17:30.709Z,56.13
2022-11-05T17:21:32.438Z,57.28
2022-11-05T17:25:34.164Z,12.57
2022-11-05T17:29:35.694Z,47.13
2022-11-05T17:33:37.280Z,139.27
2022-11-05T17:37:38.896Z,463.70
2022-11-05T17:41:40.485Z,279.08
2022-11-05T17:45:44.653Z,287.98
2022-11-05T17:49:46.275Z,10.18
2022-11-05T17:53:49.142Z,51.72
2022-11-05T17:57:51.955Z,28.58
2022-11-05T18:01:53.616Z,10.23
2022-11-05T18:06:01.763Z,19.25
2022-11-05T18:10:04.287Z,51.33
2022-11-05T18:14:06.292Z,13.23
2022-11-05T18:18:08.347Z,30.85
2022-11-05T18:22:10.064Z,19.20
2022-11-05T18:26:13.168Z,19.95
2022-11-05T18:30:15.734Z,10.55
2022-11-05T18:34:17.286Z,10.73
2022-11-05T18:38:19.052Z,10.10
2022-11-05T18:42:21.466Z,11.77
2022-11-05T18:46:51.082Z,12.85
2022-11-05T18:50:44.582Z,11.60
2022-11-05T18:54:46.234Z,10.65
2022-11-05T18:58:47.987Z,11.95
2022-11-05T19:02:49.728Z,11.88
2022-11-05T19:06:51.372Z,12.63
2022-11-05T19:10:53.281Z,11.70
2022-11-05T19:15:00.965Z,11.50
2022-11-05T19:19:05.656Z,14.25
2022-11-05T19:23:07.157Z,13.88
2022-11-05T19:27:08.638Z,15.43
2022-11-05T19:31:14.117Z,14.65
2022-11-05T19:35:15.728Z,14.65
2022-11-05T19:39:17.485Z,15.88
2022-11-05T19:43:19.325Z,14.73
2022-11-05T19:47:21.024Z,15.50
2022-11-05T19:51:25.320Z,14.05
2022-11-05T19:55:27.318Z,13.35
2022-11-05T19:59:28.959Z,13.23
2022-11-05T20:03:31.177Z,13.70
2022-11-05T20:07:34.017Z,13.75
2022-11-05T20:11:37.765Z,12.38
2022-11-05T20:15:39.665Z,9.43
2022-11-05T20:19:41.237Z,10.48
2022-11-05T20:23:43.211Z,9.52
2022-11-05T20:27:44.764Z,9.23
2022-11-05T20:31:46.897Z,11.15
2022-11-05T20:35:48.631Z,9.73
2022-11-05T20:39:50.213Z,10.10
2022-11-05T20:43:51.877Z,10.63
2022-11-05T20:47:53.303Z,9.18
2022-11-05T20:51:55.046Z,8.70
2022-11-05T20:55:56.651Z,8.18
2022-11-05T20:59:58.098Z,7.90
2022-11-05T21:04:00.038Z,8.93
2022-11-05T21:08:01.522Z,7.97
2022-11-05T21:12:12.199Z,7.00
2022-11-05T21:16:18.220Z,7.90
2022-11-05T21:20:21.311Z,7.63
2022-11-05T21:24:23.046Z,7.70
2022-11-05T21:28:24.619Z,6.13
2022-11-05T21:32:26.375Z,6.80
2022-11-05T21:36:27.819Z,7.20
2022-11-05T21:40:29.488Z,6.90
2022-11-05T21:44:31.010Z,6.57
2022-11-05T21:48:32.971Z,6.68
2022-11-05T21:52:53.582Z,6.22
2022-11-05T21:57:13.902Z,7.22
2022-11-05T22:01:15.577Z,5.43
2022-11-05T22:05:17.314Z,7.38
2022-11-05T22:09:18.843Z,5.97
2022-11-05T22:13:20.361Z,7.13
2022-11-05T22:17:21.957Z,6.22
2022-11-05T22:21:23.582Z,6.47
2022-11-05T22:25:25.125Z,7.10
2022-11-05T22:29:27.813Z,5.72
2022-11-05T22:33:30.799Z,5.63
2022-11-05T22:37:32.449Z,5.47
2022-11-05T22:41:34.394Z,5.55
2022-11-05T22:45:36.392Z,5.75
2022-11-05T22:49:38.080Z,6.05
2022-11-05T22:53:41.220Z,5.45
2022-11-05T22:57:42.925Z,5.50
2022-11-05T23:01:45.524Z,5.68
2022-11-05T23:05:47.098Z,5.68
2022-11-05T23:10:07.335Z,5.07
2022-11-05T23:14:11.464Z,5.90
2022-11-05T23:18:31.625Z,4.63
2022-11-05T23:22:51.423Z,4.75
2022-11-05T23:26:53.833Z,4.45
2022-11-05T23:31:14.252Z,4.88
2022-11-05T23:35:16.413Z,4.60
2022-11-05T23:39:18.011Z,4.70
2022-11-05T23:43:38.058Z,4.90
2022-11-05T23:47:58.222Z,4.65
2022-11-05T23:51:59.769Z,4.60
2022-11-05T23:56:05.075Z,5.07
